Time;durP1;ratioP1;P1;durP2;ratioP2;P2;SDS_P1;SDS_P2;PMS_P1;PMS_P2;Temp;Humidity;BMP_temperature;BMP_pressure;BME280_temperature;BME280_humidity;BME280_pressure;Samples;Min_cycle;Max_cycle;Signal;HPM_P1;HPM_P2
2022/05/19 00:02:19;;;;;;;0.50;0.30;;;23.70;60.30;;;;;;4976796;28;20062;-17
2022/05/19 00:04:44;;;;;;;0.28;0.28;;;23.70;60.40;;;;;;4971284;28;20039;-15
2022/05/19 00:07:10;;;;;;;0.30;0.30;;;23.70;60.30;;;;;;4958118;28;20057;-15
2022/05/19 00:09:36;;;;;;;0.43;0.30;;;23.70;60.20;;;;;;4957474;28;20050;-15
2022/05/19 00:12:03;;;;;;;0.20;0.20;;;23.70;60.10;;;;;;4958112;28;20047;-15
2022/05/19 00:14:29;;;;;;;0.55;0.30;;;23.70;60.30;;;;;;4947063;28;20062;-15
2022/05/19 00:16:57;;;;;;;0.40;0.30;;;23.70;60.10;;;;;;4957903;28;20051;-15
2022/05/19 00:19:23;;;;;;;0.40;0.35;;;23.60;60.40;;;;;;4957402;28;20071;-15
2022/05/19 00:21:49;;;;;;;0.22;0.20;;;23.60;60.40;;;;;;4973280;28;20147;-15
2022/05/19 00:24:14;;;;;;;0.30;0.30;;;23.60;60.30;;;;;;4976535;28;20051;-14
2022/05/19 00:26:40;;;;;;;0.50;0.32;;;23.60;60.30;;;;;;4975115;28;20133;-15
2022/05/19 00:29:06;;;;;;;0.45;0.40;;;23.70;60.30;;;;;;4964778;28;20051;-15
2022/05/19 00:31:32;;;;;;;0.50;0.40;;;23.60;60.10;;;;;;4969004;28;20078;-15
2022/05/19 00:33:58;;;;;;;0.40;0.30;;;23.60;60.10;;;;;;4976135;28;20137;-15
2022/05/19 00:36:24;;;;;;;0.43;0.30;;;23.70;60.00;;;;;;4974790;28;20039;-16
2022/05/19 00:38:49;;;;;;;0.20;0.20;;;23.60;60.00;;;;;;4976975;28;20053;-15
2022/05/19 00:41:15;;;;;;;0.40;0.30;;;23.60;60.00;;;;;;4976200;28;20050;-15
2022/05/19 00:43:42;;;;;;;0.40;0.30;;;23.60;60.10;;;;;;4976274;28;20424;-15
2022/05/19 00:46:21;;;;;;;1.15;0.38;;;23.60;60.20;;;;;;4976212;28;20133;-16
2022/05/19 00:48:56;;;;;;;0.32;0.20;;;23.60;60.10;;;;;;4974209;28;20590;-15
2022/05/19 00:51:33;;;;;;;0.35;0.20;;;23.60;60.10;;;;;;4975198;28;20054;-16
2022/05/19 00:53:59;;;;;;;0.20;0.20;;;23.60;60.10;;;;;;4960247;28;20046;-16
2022/05/19 00:56:47;;;;;;;0.35;0.32;;;23.60;60.90;;;;;;4976279;28;20488;-16
2022/05/19 00:59:18;;;;;;;0.25;0.22;;;23.60;60.10;;;;;;4957452;28;20521;-17
2022/05/19 01:01:44;;;;;;;0.32;0.30;;;23.60;60.10;;;;;;4960568;28;20051;-15
2022/05/19 01:04:35;;;;;;;0.75;0.20;;;23.60;60.10;;;;;;4974779;28;20161;-15
2022/05/19 01:07:04;;;;;;;0.20;0.20;;;23.60;60.10;;;;;;4990815;28;20077;-15
2022/05/19 01:09:34;;;;;;;0.32;0.30;;;23.60;60.00;;;;;;4958574;28;20038;-15
2022/05/19 01:12:01;;;;;;;0.88;0.43;;;23.50;60.30;;;;;;4975675;28;20058;-16
2022/05/19 01:14:26;;;;;;;0.40;0.32;;;23.60;60.10;;;;;;4974575;28;20046;-16
2022/05/19 01:16:52;;;;;;;0.30;0.30;;;23.60;60.10;;;;;;4976581;28;20519;-15
2022/05/19 01:19:38;;;;;;;0.20;0.20;;;23.60;60.10;;;;;;4973974;28;20050;-15
2022/05/19 01:22:26;;;;;;;0.20;0.20;;;23.60;60.00;;;;;;4974085;28;20043;-16
2022/05/19 01:25:06;;;;;;;0.55;0.40;;;23.60;60.10;;;;;;4973901;28;20043;-15
2022/05/19 01:27:31;;;;;;;0.38;0.20;;;23.60;60.10;;;;;;4966853;28;20051;-18
2022/05/19 01:29:57;;;;;;;0.40;0.20;;;23.50;60.10;;;;;;4958458;28;20094;-15
2022/05/19 01:32:27;;;;;;;0.20;0.20;;;23.50;60.10;;;;;;4961251;28;20079;-14
2022/05/19 01:34:53;;;;;;;0.40;0.40;;;23.50;60.20;;;;;;4962888;28;20039;-15
2022/05/19 01:37:19;;;;;;;0.28;0.20;;;23.50;60.20;;;;;;4978709;28;20050;-15
2022/05/19 01:39:47;;;;;;;0.73;0.57;;;23.50;60.20;;;;;;4979012;28;20047;-15
2022/05/19 01:42:37;;;;;;;0.50;0.47;;;23.60;60.10;;;;;;4963062;28;20050;-17
2022/05/19 01:45:24;;;;;;;0.30;0.30;;;23.50;60.30;;;;;;4978900;28;20047;-15
2022/05/19 01:48:09;;;;;;;0.85;0.20;;;23.50;60.30;;;;;;4977606;28;20042;-16
2022/05/19 01:51:22;;;;;;;0.40;0.32;;;23.50;60.30;;;;;;4978032;28;20097;-15
2022/05/19 01:54:11;;;;;;;0.40;0.30;;;23.50;60.30;;;;;;4949420;28;20508;-16
2022/05/19 01:56:48;;;;;;;0.40;0.30;;;23.50;60.20;;;;;;4964875;28;20047;-16
2022/05/19 01:59:33;;;;;;;0.40;0.30;;;23.50;60.30;;;;;;4979697;28;20054;-14
2022/05/19 02:02:25;;;;;;;1.05;0.30;;;23.50;60.20;;;;;;4977900;28;20074;-15
2022/05/19 02:05:02;;;;;;;0.52;0.40;;;23.60;60.10;;;;;;4978236;28;20637;-15
2022/05/19 02:07:27;;;;;;;0.50;0.50;;;23.50;60.20;;;;;;4961415;28;20053;-16
2022/05/19 02:09:56;;;;;;;0.30;0.30;;;23.50;60.20;;;;;;4979390;28;20563;-15
2022/05/19 02:12:22;;;;;;;0.50;0.40;;;23.50;60.30;;;;;;4978272;28;20047;-16
2022/05/19 02:14:57;;;;;;;0.20;0.20;;;23.50;60.30;;;;;;4978774;28;20109;-16
2022/05/19 02:17:23;;;;;;;0.40;0.40;;;23.50;60.30;;;;;;4978195;28;20055;-16
2022/05/19 02:19:50;;;;;;;0.50;0.30;;;23.50;60.30;;;;;;4976495;28;20423;-15
2022/05/19 02:22:20;;;;;;;0.30;0.30;;;23.50;60.50;;;;;;4970820;28;20055;-15
2022/05/19 02:24:53;;;;;;;0.30;0.30;;;23.50;60.30;;;;;;4958322;28;20047;-15
2022/05/19 02:27:21;;;;;;;0.77;0.28;;;23.50;60.40;;;;;;4976946;28;20065;-14
2022/05/19 02:29:47;;;;;;;0.40;0.30;;;23.50;60.30;;;;;;4976189;28;20046;-15
2022/05/19 02:32:12;;;;;;;0.70;0.45;;;23.50;60.30;;;;;;4976650;28;20049;-15
2022/05/19 02:34:38;;;;;;;0.77;0.30;;;23.50;60.30;;;;;;4976775;28;20050;-15
2022/05/19 02:37:05;;;;;;;0.85;0.30;;;23.50;60.40;;;;;;4977726;28;20138;-14
2022/05/19 02:39:31;;;;;;;0.77;0.30;;;23.50;60.50;;;;;;4972420;28;20043;-16
2022/05/19 02:41:57;;;;;;;0.20;0.20;;;23.40;60.40;;;;;;4958406;28;20046;-15
2022/05/19 02:44:22;;;;;;;0.45;0.45;;;23.50;60.40;;;;;;4960518;28;20054;-15
2022/05/19 02:46:48;;;;;;;0.35;0.20;;;23.50;60.40;;;;;;4977470;28;20043;-14
2022/05/19 02:49:13;;;;;;;0.38;0.35;;;23.50;60.30;;;;;;4977856;28;20102;-15
2022/05/19 02:51:39;;;;;;;1.67;0.32;;;23.50;60.40;;;;;;4975576;28;20047;-15
2022/05/19 02:54:05;;;;;;;0.20;0.20;;;23.50;60.40;;;;;;4976776;28;20385;-15
2022/05/19 02:56:30;;;;;;;0.50;0.20;;;23.40;60.30;;;;;;4975988;28;20042;-17
2022/05/19 02:58:56;;;;;;;0.32;0.20;;;23.40;60.40;;;;;;4976540;28;20042;-15
2022/05/19 03:01:22;;;;;;;0.17;0.10;;;23.50;60.30;;;;;;4977796;28;20050;-15
2022/05/19 03:03:48;;;;;;;0.60;0.40;;;23.50;60.40;;;;;;4970405;28;20050;-15
2022/05/19 03:06:14;;;;;;;0.20;0.20;;;23.40;60.30;;;;;;4958242;28;20047;-15
2022/05/19 03:08:39;;;;;;;0.93;0.45;;;23.40;60.40;;;;;;4962124;28;20561;-15
2022/05/19 03:11:05;;;;;;;1.15;0.30;;;23.50;60.30;;;;;;4977162;28;20049;-16
2022/05/19 03:13:30;;;;;;;1.80;0.30;;;23.50;60.40;;;;;;4976663;28;20077;-16
2022/05/19 03:15:56;;;;;;;3.50;0.25;;;23.40;60.30;;;;;;4977143;28;20053;-15
2022/05/19 03:18:22;;;;;;;0.40;0.30;;;23.40;60.30;;;;;;4966205;28;20068;-15
2022/05/19 03:20:47;;;;;;;0.60;0.30;;;23.40;60.30;;;;;;4957485;28;20054;-15
2022/05/19 03:23:13;;;;;;;0.43;0.43;;;23.40;60.30;;;;;;4932692;28;1171988;-15
2022/05/19 03:25:39;;;;;;;0.30;0.30;;;23.40;60.30;;;;;;4966753;28;20058;-15
2022/05/19 03:28:05;;;;;;;0.35;0.30;;;23.40;60.40;;;;;;4978387;28;20085;-15
2022/05/19 03:30:30;;;;;;;0.68;0.30;;;23.40;60.30;;;;;;4977989;28;20043;-15
2022/05/19 03:32:56;;;;;;;0.60;0.22;;;23.40;60.30;;;;;;4975667;28;20475;-14
2022/05/19 03:35:21;;;;;;;0.60;0.30;;;23.40;60.40;;;;;;4978053;28;20133;-15
2022/05/19 03:37:47;;;;;;;0.40;0.20;;;23.40;60.50;;;;;;4977404;28;20046;-15
2022/05/19 03:40:14;;;;;;;0.65;0.30;;;23.40;60.30;;;;;;4977364;28;20047;-15
2022/05/19 03:42:39;;;;;;;0.50;0.32;;;23.50;60.50;;;;;;4977619;28;20508;-15
2022/05/19 03:45:05;;;;;;;0.40;0.40;;;23.40;60.30;;;;;;4977791;28;20469;-15
2022/05/19 03:47:31;;;;;;;1.02;0.30;;;23.40;60.30;;;;;;4977277;28;20039;-15
2022/05/19 03:49:57;;;;;;;1.05;0.50;;;23.50;60.50;;;;;;4977345;28;20054;-15
2022/05/19 03:52:22;;;;;;;0.28;0.28;;;23.40;60.20;;;;;;4975959;28;20049;-15
2022/05/19 03:54:48;;;;;;;0.50;0.40;;;23.40;60.20;;;;;;4977291;28;20045;-15
2022/05/19 03:57:16;;;;;;;1.10;0.45;;;23.40;60.30;;;;;;4977890;28;20434;-15
2022/05/19 03:59:41;;;;;;;0.35;0.30;;;23.40;60.30;;;;;;4976202;28;20144;-15
2022/05/19 04:02:07;;;;;;;0.35;0.35;;;23.40;60.40;;;;;;4977456;28;20055;-15
2022/05/19 04:04:33;;;;;;;0.30;0.30;;;23.40;60.30;;;;;;4977216;28;20039;-17
2022/05/19 04:06:58;;;;;;;0.30;0.20;;;23.40;60.30;;;;;;4976603;28;20061;-15
2022/05/19 04:09:24;;;;;;;0.45;0.40;;;23.40;60.30;;;;;;4977634;28;20046;-15
2022/05/19 04:11:49;;;;;;;0.20;0.17;;;23.40;60.20;;;;;;4976874;28;20514;-15
2022/05/19 04:14:15;;;;;;;0.63;0.43;;;23.40;60.30;;;;;;4976800;28;20050;-15
2022/05/19 04:16:41;;;;;;;0.47;0.40;;;23.30;60.30;;;;;;4976032;28;20412;-15
2022/05/19 04:19:06;;;;;;;0.40;0.40;;;23.40;60.50;;;;;;4977410;28;20042;-14
2022/05/19 04:21:32;;;;;;;0.40;0.40;;;23.40;60.60;;;;;;4976525;28;20030;-16
2022/05/19 04:23:57;;;;;;;0.43;0.20;;;23.40;60.40;;;;;;4976198;28;20530;-15
2022/05/19 04:26:23;;;;;;;0.50;0.20;;;23.40;60.30;;;;;;4976339;28;20072;-15
2022/05/19 04:28:49;;;;;;;0.80;0.22;;;23.40;60.40;;;;;;4976621;28;20135;-15
2022/05/19 04:31:14;;;;;;;0.80;0.22;;;23.40;60.40;;;;;;4991755;28;20047;-15
2022/05/19 04:33:40;;;;;;;1.55;0.40;;;23.40;60.30;;;;;;4974721;28;20101;-15
2022/05/19 04:36:06;;;;;;;0.28;0.20;;;23.30;60.20;;;;;;4972156;28;20138;-14
2022/05/19 04:38:31;;;;;;;0.43;0.30;;;23.40;60.30;;;;;;4975528;28;20130;-15
2022/05/19 04:41:00;;;;;;;0.40;0.30;;;23.40;60.40;;;;;;4970641;28;20051;-15
2022/05/19 04:43:26;;;;;;;1.00;0.40;;;23.30;60.40;;;;;;4973918;28;20043;-16
2022/05/19 04:45:52;;;;;;;0.47;0.47;;;23.30;60.30;;;;;;4966479;28;20050;-15
2022/05/19 04:48:19;;;;;;;0.40;0.20;;;23.30;60.40;;;;;;4974692;28;20043;-15
2022/05/19 04:50:44;;;;;;;0.40;0.25;;;23.30;60.40;;;;;;4973615;28;20088;-14
2022/05/19 04:53:10;;;;;;;0.40;0.30;;;23.40;60.40;;;;;;4974872;28;20115;-15
2022/05/19 04:55:37;;;;;;;0.52;0.30;;;23.30;60.40;;;;;;4973943;28;20054;-18
2022/05/19 04:58:03;;;;;;;0.52;0.40;;;23.30;60.40;;;;;;4975353;28;20516;-15
2022/05/19 05:00:28;;;;;;;0.35;0.30;;;23.30;60.50;;;;;;4970203;28;20483;-15
2022/05/19 05:02:54;;;;;;;0.55;0.40;;;23.30;60.50;;;;;;4974071;28;20126;-15
2022/05/19 05:05:20;;;;;;;0.50;0.30;;;23.30;60.60;;;;;;4974400;28;20058;-15
2022/05/19 05:07:46;;;;;;;0.68;0.50;;;23.30;60.70;;;;;;4967150;28;20047;-15
2022/05/19 05:10:12;;;;;;;0.17;0.17;;;23.40;60.90;;;;;;4972773;28;20558;-15
2022/05/19 05:12:37;;;;;;;0.52;0.30;;;23.30;61.10;;;;;;4974771;28;20051;-16
2022/05/19 05:15:03;;;;;;;2.15;0.50;;;23.40;61.00;;;;;;4975778;28;20226;-15
2022/05/19 05:17:29;;;;;;;2.45;0.40;;;23.40;60.90;;;;;;4976567;28;20077;-15
2022/05/19 05:19:54;;;;;;;1.02;0.50;;;23.40;61.20;;;;;;4970460;28;20106;-15
2022/05/19 05:22:20;;;;;;;0.50;0.50;;;23.30;61.60;;;;;;4971367;28;20089;-15
2022/05/19 05:24:45;;;;;;;0.57;0.57;;;23.30;61.20;;;;;;4625957;28;9999937;-15
2022/05/19 05:27:11;;;;;;;0.85;0.40;;;23.30;61.30;;;;;;4972285;28;20049;-15
2022/05/19 05:29:36;;;;;;;2.50;0.50;;;23.30;61.20;;;;;;4972208;28;20043;-15
2022/05/19 05:32:03;;;;;;;1.10;0.55;;;23.20;61.60;;;;;;4971951;28;20039;-15
2022/05/19 05:34:28;;;;;;;3.22;0.70;;;23.30;61.80;;;;;;4970980;28;20149;-15
2022/05/19 05:36:54;;;;;;;2.22;0.68;;;23.30;61.70;;;;;;4969839;28;20129;-15
2022/05/19 05:39:19;;;;;;;0.85;0.60;;;23.30;61.60;;;;;;4968516;28;20139;-15
2022/05/19 05:41:46;;;;;;;2.33;0.80;;;23.30;62.50;;;;;;4971246;28;20042;-15
2022/05/19 05:44:11;;;;;;;3.00;0.50;;;23.30;61.90;;;;;;4970839;28;20400;-15
2022/05/19 05:46:37;;;;;;;2.97;0.90;;;23.30;61.70;;;;;;4971224;28;20118;-15
2022/05/19 05:49:03;;;;;;;3.03;0.77;;;23.30;62.10;;;;;;4969169;28;20580;-15
2022/05/19 05:51:29;;;;;;;1.98;0.70;;;23.30;61.90;;;;;;4974072;28;20047;-16
2022/05/19 05:53:54;;;;;;;1.00;0.60;;;23.30;61.70;;;;;;4974153;28;20046;-16
2022/05/19 05:56:20;;;;;;;2.85;0.80;;;23.40;61.50;;;;;;4976345;28;20504;-16
2022/05/19 05:58:46;;;;;;;1.60;0.60;;;23.40;61.50;;;;;;4975550;28;20039;-16
2022/05/19 06:01:13;;;;;;;10.05;1.00;;;23.40;61.70;;;;;;4972993;28;20126;-16
2022/05/19 06:03:39;;;;;;;1.25;0.95;;;23.40;61.40;;;;;;4957010;28;20031;-16
2022/05/19 06:06:05;;;;;;;2.97;0.75;;;23.40;61.40;;;;;;4956050;28;20048;-17
2022/05/19 06:08:31;;;;;;;0.90;0.75;;;23.40;61.50;;;;;;4975867;28;20043;-15
2022/05/19 06:10:57;;;;;;;2.63;0.95;;;23.40;61.40;;;;;;4975598;28;20053;-16
2022/05/19 06:13:24;;;;;;;1.55;0.90;;;23.40;61.40;;;;;;4974715;28;20043;-16
2022/05/19 06:15:49;;;;;;;0.95;0.70;;;23.40;61.40;;;;;;4975507;28;20055;-16
2022/05/19 06:18:15;;;;;;;0.60;0.60;;;23.40;61.30;;;;;;4960487;28;20573;-16
2022/05/19 06:20:41;;;;;;;1.42;0.80;;;23.30;61.50;;;;;;4958844;28;20515;-17
2022/05/19 06:23:07;;;;;;;1.50;0.70;;;23.30;61.40;;;;;;4958702;28;20043;-16
2022/05/19 06:25:32;;;;;;;1.58;0.95;;;23.40;61.50;;;;;;4973098;28;20046;-16
2022/05/19 06:28:00;;;;;;;1.85;1.00;;;23.20;61.00;;;;;;4977744;28;20039;-16
2022/05/19 06:30:25;;;;;;;2.95;1.40;;;22.80;61.80;;;;;;4978162;28;20077;-16
2022/05/19 06:32:51;;;;;;;2.17;0.88;;;22.60;62.40;;;;;;4978031;28;20039;-16
2022/05/19 06:35:19;;;;;;;3.08;1.30;;;22.50;62.90;;;;;;4978481;28;20043;-16
2022/05/19 06:37:45;;;;;;;2.88;1.00;;;22.30;63.40;;;;;;4977816;28;20129;-17
2022/05/19 06:40:13;;;;;;;2.70;1.20;;;22.20;64.00;;;;;;4976907;28;20054;-16
2022/05/19 06:42:39;;;;;;;3.30;1.05;;;22.10;64.00;;;;;;4977490;28;20409;-16
2022/05/19 06:45:05;;;;;;;3.03;1.50;;;22.00;64.30;;;;;;4975728;28;20069;-15
2022/05/19 06:47:31;;;;;;;2.35;1.42;;;21.90;64.40;;;;;;4974400;28;20035;-15
2022/05/19 06:49:56;;;;;;;2.08;1.20;;;21.70;65.00;;;;;;4970782;28;20053;-15
2022/05/19 06:52:24;;;;;;;2.25;1.13;;;21.70;64.90;;;;;;4978226;28;20098;-15
2022/05/19 06:54:51;;;;;;;2.45;1.23;;;21.60;65.50;;;;;;4976608;28;20100;-15
2022/05/19 06:57:19;;;;;;;3.25;1.08;;;21.50;65.30;;;;;;4971869;28;20508;-15
2022/05/19 06:59:45;;;;;;;3.17;1.58;;;21.40;65.70;;;;;;4975956;28;20071;-16
2022/05/19 07:02:11;;;;;;;5.97;1.10;;;21.40;65.50;;;;;;4978547;28;20047;-15
2022/05/19 07:04:37;;;;;;;1.60;1.17;;;21.40;66.00;;;;;;4978293;28;20042;-14
2022/05/19 07:07:04;;;;;;;3.10;1.33;;;21.30;66.20;;;;;;4977487;28;20082;-15
2022/05/19 07:09:31;;;;;;;3.00;1.35;;;21.30;66.10;;;;;;4978424;28;20043;-15
2022/05/19 07:11:56;;;;;;;4.03;1.05;;;21.30;66.00;;;;;;4977771;28;20046;-15
2022/05/19 07:14:22;;;;;;;3.92;1.00;;;21.40;66.10;;;;;;4977402;28;20685;-16
2022/05/19 07:16:48;;;;;;;2.22;1.23;;;21.30;66.70;;;;;;4977464;28;20566;-15
2022/05/19 07:22:01;;;;;;;2.92;1.10;;;21.10;68.00;;;;;;4975989;28;20049;-16
2022/05/19 07:24:26;;;;;;;1.67;1.20;;;21.10;68.00;;;;;;4976626;28;20089;-15
2022/05/19 07:26:54;;;;;;;2.38;0.98;;;21.10;67.70;;;;;;4976666;28;20042;-16
2022/05/19 07:29:20;;;;;;;1.52;1.05;;;21.00;67.60;;;;;;4974886;28;20054;-15
2022/05/19 07:31:48;;;;;;;2.20;0.80;;;20.90;67.30;;;;;;4975832;28;20126;-17
2022/05/19 07:34:15;;;;;;;3.53;1.25;;;21.00;67.30;;;;;;4977779;28;20452;-15
2022/05/19 07:36:41;;;;;;;2.45;0.80;;;20.90;67.90;;;;;;4977509;28;20130;-15
2022/05/19 07:39:07;;;;;;;1.60;0.98;;;20.90;68.40;;;;;;4977280;28;20066;-15
2022/05/19 07:41:32;;;;;;;2.47;1.27;;;20.90;68.60;;;;;;4977000;28;20570;-15
2022/05/19 07:43:58;;;;;;;1.55;0.82;;;20.90;69.30;;;;;;4977327;28;20050;-15
2022/05/19 07:46:25;;;;;;;1.52;1.02;;;20.90;69.20;;;;;;4977631;28;20169;-16
2022/05/19 07:48:54;;;;;;;3.63;1.20;;;20.70;69.50;;;;;;4977113;28;20062;-15
2022/05/19 07:51:23;;;;;;;1.77;1.10;;;20.80;69.40;;;;;;4976907;28;20500;-16
2022/05/19 07:53:49;;;;;;;2.38;1.13;;;20.80;69.60;;;;;;4976422;28;20055;-16
2022/05/19 07:56:15;;;;;;;2.67;1.05;;;20.80;69.50;;;;;;4976775;28;20046;-18
2022/05/19 07:58:41;;;;;;;3.40;1.23;;;20.70;70.10;;;;;;4977637;28;20157;-17
2022/05/19 08:01:07;;;;;;;1.55;1.00;;;20.70;69.90;;;;;;4968660;28;20086;-16
2022/05/19 08:03:33;;;;;;;2.10;0.80;;;20.60;70.10;;;;;;4977528;28;20054;-16
2022/05/19 08:05:58;;;;;;;2.10;1.10;;;20.60;69.30;;;;;;4976495;28;20046;-16
2022/05/19 08:08:24;;;;;;;1.27;0.90;;;20.50;69.00;;;;;;4976104;28;20054;-16
2022/05/19 08:10:52;;;;;;;1.50;1.00;;;20.60;69.20;;;;;;4976560;28;20035;-16
2022/05/19 08:16:02;;;;;;;;;;;20.40;69.80;;;;;;4976234;28;20133;-16
2022/05/19 08:18:28;;;;;;;1.65;1.15;;;20.50;70.20;;;;;;4977078;28;19981;-16
2022/05/19 08:20:58;;;;;;;0.80;0.55;;;20.50;69.80;;;;;;4976497;28;20042;-16
2022/05/19 08:23:29;;;;;;;0.90;0.65;;;20.50;69.90;;;;;;4976233;28;20049;-16
2022/05/19 08:25:55;;;;;;;2.60;1.17;;;20.50;70.30;;;;;;4975877;28;20656;-16
2022/05/19 08:28:21;;;;;;;2.33;1.05;;;20.50;70.70;;;;;;4974872;28;20066;-16
2022/05/19 08:30:48;;;;;;;1.75;1.05;;;20.50;70.40;;;;;;4966213;28;20046;-17
2022/05/19 08:33:15;;;;;;;1.83;0.90;;;20.50;70.10;;;;;;4975245;28;20047;-19
2022/05/19 08:35:41;;;;;;;1.48;0.70;;;20.50;70.20;;;;;;4974436;28;20043;-18
2022/05/19 08:38:06;;;;;;;1.92;0.77;;;20.50;69.60;;;;;;4967255;28;20043;-17
2022/05/19 08:40:43;;;;;;;4.05;1.00;;;20.50;69.50;;;;;;4974086;28;20045;-17
2022/05/19 08:43:09;;;;;;;1.80;0.93;;;20.40;68.70;;;;;;4973021;28;20039;-18
2022/05/19 08:45:38;;;;;;;1.40;1.05;;;20.40;68.40;;;;;;4980285;28;20045;-17
2022/05/19 08:48:15;;;;;;;2.25;0.90;;;20.40;68.40;;;;;;4978216;28;20043;-17
2022/05/19 08:50:40;;;;;;;1.35;0.80;;;20.50;68.40;;;;;;4974548;28;20049;-17
2022/05/19 08:53:07;;;;;;;1.95;0.93;;;20.60;68.10;;;;;;4975490;28;20523;-18
2022/05/19 08:55:33;;;;;;;1.45;0.82;;;20.70;68.20;;;;;;4976285;28;20116;-17
2022/05/19 08:58:27;;;;;;;1.73;1.08;;;20.70;68.00;;;;;;4975060;28;20527;-17
2022/05/19 09:00:55;;;;;;;1.98;0.73;;;20.80;67.80;;;;;;4974824;28;20098;-17
2022/05/19 09:03:32;;;;;;;1.58;0.70;;;21.00;67.90;;;;;;4974848;28;20051;-18
2022/05/19 09:06:06;;;;;;;1.05;0.57;;;21.10;67.60;;;;;;4974261;28;20047;-17
2022/05/19 09:08:43;;;;;;;3.03;0.90;;;21.10;67.50;;;;;;4965270;28;20043;-17
2022/05/19 09:11:13;;;;;;;2.38;1.10;;;21.20;67.20;;;;;;4956557;28;20271;-17
2022/05/19 09:13:39;;;;;;;1.80;0.93;;;21.30;66.70;;;;;;4965093;28;20054;-17
2022/05/19 09:16:14;;;;;;;2.72;0.80;;;21.50;66.10;;;;;;4975381;28;20043;-17
2022/05/19 09:18:44;;;;;;;1.60;0.75;;;21.60;65.40;;;;;;4974136;28;20065;-17
2022/05/19 09:21:09;;;;;;;0.95;0.55;;;21.40;65.40;;;;;;4970721;28;20071;-19
2022/05/19 09:23:35;;;;;;;1.10;0.60;;;21.30;64.60;;;;;;4624395;28;10000005;-17
2022/05/19 09:26:27;;;;;;;1.13;0.60;;;21.30;64.00;;;;;;4969725;28;20065;-18
2022/05/19 09:28:57;;;;;;;1.58;0.95;;;21.20;63.70;;;;;;4977070;28;20050;-18
2022/05/19 09:31:34;;;;;;;3.22;1.00;;;21.10;64.60;;;;;;4965225;28;20038;-15
2022/05/19 09:33:59;;;;;;;2.22;0.55;;;21.20;64.60;;;;;;4970937;28;20373;-15
2022/05/19 09:36:25;;;;;;;1.65;0.85;;;21.30;64.60;;;;;;4972010;28;20066;-15
2022/05/19 09:38:50;;;;;;;1.60;0.70;;;21.20;64.80;;;;;;4954364;28;20050;-16
2022/05/19 09:41:37;;;;;;;3.13;1.33;;;21.20;64.90;;;;;;4951401;28;20110;-16
2022/05/19 09:44:04;;;;;;;3.03;0.63;;;21.30;65.10;;;;;;4972185;28;20084;-15
2022/05/19 09:46:43;;;;;;;1.90;0.82;;;21.30;65.20;;;;;;4970430;28;20447;-15
2022/05/19 09:49:28;;;;;;;1.40;0.63;;;21.40;65.50;;;;;;4972592;28;20097;-15
2022/05/19 09:51:53;;;;;;;1.50;0.70;;;21.40;65.10;;;;;;4975251;28;20057;-16
2022/05/19 09:54:22;;;;;;;2.53;0.90;;;21.40;65.50;;;;;;4976766;28;20567;-16
2022/05/19 09:56:52;;;;;;;1.52;0.80;;;21.40;65.10;;;;;;4994470;28;20089;-16
2022/05/19 09:59:24;;;;;;;1.58;0.82;;;21.40;64.90;;;;;;4974805;28;20046;-16
2022/05/19 10:01:51;;;;;;;1.77;0.70;;;21.40;64.40;;;;;;4982872;28;20047;-17
2022/05/19 10:04:25;;;;;;;1.48;0.95;;;21.50;64.10;;;;;;4971516;28;20047;-16
2022/05/19 10:06:55;;;;;;;1.00;0.68;;;21.50;63.80;;;;;;4969680;28;20038;-15
2022/05/19 10:09:32;;;;;;;1.35;1.20;;;21.60;63.60;;;;;;4973204;28;20038;-16
2022/05/19 10:12:09;;;;;;;2.78;1.30;;;21.60;63.50;;;;;;4972391;28;20051;-16
2022/05/19 10:14:35;;;;;;;4.07;2.28;;;21.70;63.80;;;;;;4973606;28;20054;-16
2022/05/19 10:17:25;;;;;;;10.65;5.47;;;21.70;63.80;;;;;;4973771;28;20047;-16
2022/05/19 10:20:09;;;;;;;159.63;74.38;;;21.70;63.80;;;;;;4958336;28;20039;-15
2022/05/19 10:23:15;;;;;;;374.48;181.48;;;21.70;64.40;;;;;;4973181;28;20051;-15
2022/05/19 10:26:02;;;;;;;526.72;264.27;;;21.80;65.10;;;;;;4974180;28;20491;-15
2022/05/19 10:31:24;;;;;;;194.82;95.75;;;21.80;64.00;;;;;;4970942;28;20085;-15
2022/05/19 10:33:53;;;;;;;175.27;84.60;;;21.80;64.40;;;;;;4974310;28;20042;-16
2022/05/19 10:36:45;;;;;;;148.65;70.00;;;21.80;64.00;;;;;;4975868;28;20105;-17
2022/05/19 10:39:33;;;;;;;138.38;65.20;;;21.80;64.00;;;;;;4969983;28;20133;-16
2022/05/19 10:42:21;;;;;;;124.47;59.90;;;21.80;63.80;;;;;;4977356;28;20816;-16
2022/05/19 10:45:17;;;;;;;114.07;55.50;;;21.80;63.60;;;;;;4968825;28;20042;-15
2022/05/19 10:48:01;;;;;;;114.43;52.63;;;21.90;63.60;;;;;;4974276;28;20050;-15
2022/05/19 10:50:35;;;;;;;106.47;49.80;;;21.90;63.40;;;;;;4976402;28;20042;-15
2022/05/19 10:53:38;;;;;;;82.22;39.20;;;21.90;63.20;;;;;;4974681;28;20049;-16
2022/05/19 10:56:22;;;;;;;70.22;35.05;;;21.90;63.00;;;;;;4969843;28;20130;-15
2022/05/19 10:59:03;;;;;;;55.50;26.35;;;21.90;62.90;;;;;;4973095;28;20081;-15
2022/05/19 11:01:50;;;;;;;40.92;21.52;;;21.90;62.70;;;;;;4968056;28;20061;-15
2022/05/19 11:04:48;;;;;;;45.08;23.33;;;22.00;62.30;;;;;;4972238;28;20038;-15
2022/05/19 11:07:23;;;;;;;55.55;28.02;;;22.00;62.30;;;;;;4973247;28;20397;-16
2022/05/19 11:10:06;;;;;;;55.90;29.00;;;22.10;62.90;;;;;;4971754;28;20062;-15
2022/05/19 11:12:57;;;;;;;69.00;33.40;;;22.10;61.90;;;;;;4973939;28;20054;-17
2022/05/19 11:15:38;;;;;;;54.28;29.75;;;22.10;62.00;;;;;;4976902;28;20042;-16
2022/05/19 11:18:12;;;;;;;71.85;36.38;;;22.10;62.20;;;;;;4979068;28;20107;-16
2022/05/19 11:20:53;;;;;;;63.70;34.33;;;22.10;62.10;;;;;;4959133;28;20061;-16
2022/05/19 11:23:24;;;;;;;54.20;29.50;;;22.10;61.80;;;;;;4965224;28;20054;-16
2022/05/19 11:26:24;;;;;;;52.38;29.05;;;22.10;61.50;;;;;;4973021;28;20224;-16
2022/05/19 11:28:53;;;;;;;54.30;27.60;;;22.20;61.70;;;;;;4968515;28;20058;-16
2022/05/19 11:31:47;;;;;;;50.88;26.10;;;22.20;61.50;;;;;;4972396;28;20053;-17
2022/05/19 11:34:26;;;;;;;52.38;27.27;;;22.20;61.50;;;;;;4962862;28;20045;-16
2022/05/19 11:37:14;;;;;;;52.70;25.90;;;22.20;61.50;;;;;;4969390;28;20047;-17
2022/05/19 11:39:59;;;;;;;51.90;25.20;;;22.20;61.50;;;;;;4974757;28;20579;-16
2022/05/19 11:42:45;;;;;;;43.78;22.58;;;22.20;61.50;;;;;;4998792;28;20571;-16
2022/05/19 11:45:31;;;;;;;40.97;22.55;;;22.20;61.40;;;;;;4973646;28;20038;-16
2022/05/19 11:57:29;;;;;;;25.27;14.60;;;22.30;61.20;;;;;;4968817;28;20735;-16
2022/05/19 11:59:56;;;;;;;27.42;14.05;;;22.30;61.10;;;;;;4958907;28;20512;-16
2022/05/19 12:02:26;;;;;;;23.95;14.65;;;22.30;61.20;;;;;;4971719;28;20061;-16
2022/05/19 12:04:57;;;;;;;27.73;15.75;;;22.30;60.90;;;;;;4971595;28;20114;-16
2022/05/19 12:07:52;;;;;;;21.27;13.18;;;22.40;61.00;;;;;;4966746;28;20053;-16
2022/05/19 12:10:36;;;;;;;21.95;12.25;;;22.40;60.70;;;;;;4970787;28;20062;-15
2022/05/19 12:13:03;;;;;;;17.13;10.93;;;22.50;60.50;;;;;;4966552;28;20096;-16
2022/05/19 12:15:54;;;;;;;19.55;11.38;;;22.40;60.50;;;;;;4967088;28;20420;-17
2022/05/19 12:18:22;;;;;;;17.17;10.55;;;22.40;61.00;;;;;;4971350;28;20156;-15
2022/05/19 12:21:00;;;;;;;18.38;9.90;;;22.50;60.80;;;;;;4971267;28;20403;-16
2022/05/19 12:23:33;;;;;;;19.23;10.90;;;22.50;61.10;;;;;;4970290;28;20141;-16
2022/05/19 12:26:19;;;;;;;20.38;10.60;;;22.50;60.70;;;;;;4972983;28;20042;-16
2022/05/19 12:28:48;;;;;;;16.92;9.43;;;22.50;61.00;;;;;;4965970;28;20051;-15
2022/05/19 12:34:13;;;;;;;13.95;8.23;;;22.50;60.90;;;;;;4971330;28;20122;-15
2022/05/19 12:36:41;;;;;;;15.00;9.45;;;22.60;61.20;;;;;;4969091;28;20074;-14
2022/05/19 12:39:11;;;;;;;16.65;9.88;;;22.60;60.70;;;;;;4970315;28;20393;-16
2022/05/19 12:41:52;;;;;;;15.00;8.93;;;22.60;60.90;;;;;;4975441;28;20479;-16
2022/05/19 12:44:50;;;;;;;16.13;10.27;;;22.70;60.60;;;;;;4974950;28;20039;-16
2022/05/19 12:47:16;;;;;;;20.27;9.52;;;22.60;60.50;;;;;;4961203;28;20492;-17
2022/05/19 12:50:08;;;;;;;16.48;10.27;;;22.60;60.80;;;;;;4975328;28;20511;-15
2022/05/19 12:52:54;;;;;;;17.42;10.13;;;22.70;60.90;;;;;;4972366;28;20054;-16
2022/05/19 12:55:22;;;;;;;12.23;8.15;;;22.70;61.00;;;;;;4973945;28;20057;-16
2022/05/19 12:57:48;;;;;;;13.75;8.93;;;22.70;60.70;;;;;;4976555;28;20053;-16
2022/05/19 13:00:23;;;;;;;12.70;8.63;;;22.70;60.80;;;;;;4972072;28;20042;-16
2022/05/19 13:02:52;;;;;;;13.98;8.35;;;22.70;60.70;;;;;;4972002;28;20057;-15
2022/05/19 13:05:41;;;;;;;14.90;8.90;;;22.70;60.80;;;;;;4964205;28;20091;-16
2022/05/19 13:08:14;;;;;;;11.77;7.47;;;22.70;60.70;;;;;;4966118;28;20050;-15
2022/05/19 13:10:45;;;;;;;15.63;8.60;;;22.70;60.60;;;;;;4973509;28;20126;-17
2022/05/19 13:13:38;;;;;;;13.23;7.80;;;22.80;60.40;;;;;;4951235;28;20130;-16
2022/05/19 13:16:24;;;;;;;11.55;7.25;;;22.80;60.70;;;;;;4975189;28;20447;-15
2022/05/19 13:18:51;;;;;;;11.40;7.13;;;22.80;60.90;;;;;;4973693;28;20080;-16
2022/05/19 13:21:28;;;;;;;9.23;6.32;;;22.90;60.30;;;;;;4972680;28;20585;-16
2022/05/19 13:23:54;;;;;;;9.20;5.90;;;22.80;60.40;;;;;;4969758;28;20082;-16